createdAt,value
2019-01-29T00:01:41.189Z,94.16
2019-01-29T00:04:10.558Z,94.34
2019-01-29T00:06:39.936Z,94.32
2019-01-29T00:09:10.641Z,94.80
2019-01-29T00:11:40.069Z,94.80
2019-01-29T00:14:09.445Z,94.54
2019-01-29T00:16:38.851Z,94.37
2019-01-29T00:19:08.213Z,94.19
2019-01-29T00:21:37.582Z,93.71
2019-01-29T00:24:06.969Z,93.41
2019-01-29T00:26:36.330Z,93.77
2019-01-29T00:29:05.802Z,93.93
2019-01-29T00:31:35.163Z,94.22
2019-01-29T00:34:05.717Z,93.88
2019-01-29T00:36:35.066Z,93.93
2019-01-29T00:39:06.622Z,93.88
2019-01-29T00:41:35.975Z,93.90
2019-01-29T00:44:05.494Z,94.41
2019-01-29T00:46:34.952Z,94.66
2019-01-29T00:49:04.448Z,94.56
2019-01-29T00:51:33.861Z,95.25
2019-01-29T00:54:03.266Z,95.78
2019-01-29T00:56:32.626Z,95.74
2019-01-29T00:59:02.028Z,95.91
2019-01-29T01:01:31.475Z,96.05
2019-01-29T01:04:00.842Z,96.15
2019-01-29T01:06:30.286Z,95.09
2019-01-29T01:08:59.700Z,94.60
2019-01-29T01:11:29.120Z,94.67
2019-01-29T01:13:58.450Z,95.11
2019-01-29T01:16:27.821Z,95.11
2019-01-29T01:18:57.180Z,94.90
2019-01-29T01:21:26.561Z,94.94
2019-01-29T01:23:56.033Z,94.56
2019-01-29T01:26:25.436Z,94.36
2019-01-29T01:28:54.792Z,93.93
2019-01-29T01:31:24.156Z,93.48
2019-01-29T01:33:53.525Z,93.99
2019-01-29T01:36:22.885Z,94.29
2019-01-29T01:38:52.208Z,94.43
2019-01-29T01:41:21.554Z,94.48
2019-01-29T01:43:50.942Z,94.08
2019-01-29T01:46:20.282Z,93.70
2019-01-29T01:48:49.669Z,93.31
2019-01-29T01:51:19.086Z,92.40
2019-01-29T01:53:48.451Z,92.83
2019-01-29T01:56:17.819Z,92.83
2019-01-29T01:58:47.324Z,93.28
2019-01-29T02:01:16.708Z,93.47
2019-01-29T02:03:46.084Z,93.74
2019-01-29T02:06:15.424Z,93.75
2019-01-29T02:08:44.753Z,94.08
2019-01-29T02:11:14.092Z,94.62
2019-01-29T02:13:43.460Z,94.53
2019-01-29T02:16:12.798Z,93.10
2019-01-29T02:18:42.143Z,92.13
2019-01-29T02:21:11.529Z,92.34
2019-01-29T02:27:12.908Z,91.85
2019-01-29T02:29:42.261Z,92.24
2019-01-29T02:32:11.707Z,92.39
2019-01-29T02:34:41.083Z,92.41
2019-01-29T02:37:10.424Z,92.21
2019-01-29T02:39:39.851Z,91.87
2019-01-29T02:42:09.238Z,91.72
2019-01-29T02:44:38.555Z,91.53
2019-01-29T02:47:07.893Z,91.79
2019-01-29T02:49:37.255Z,91.47
2019-01-29T02:52:06.578Z,92.66
2019-01-29T02:54:35.947Z,92.13
2019-01-29T02:57:05.302Z,91.81
2019-01-29T02:59:34.681Z,92.06
2019-01-29T03:02:04.145Z,91.73
2019-01-29T03:04:33.535Z,92.08
2019-01-29T03:07:03.295Z,92.04
2019-01-29T03:09:32.651Z,92.00
2019-01-29T03:12:01.987Z,92.26
2019-01-29T03:14:31.311Z,92.26
2019-01-29T03:17:00.654Z,92.38
2019-01-29T03:19:30.041Z,92.57
2019-01-29T03:21:59.398Z,92.59
2019-01-29T03:24:28.743Z,92.71
2019-01-29T03:26:58.098Z,92.51
2019-01-29T03:29:27.451Z,92.66
2019-01-29T03:31:56.893Z,92.45
2019-01-29T03:34:26.249Z,92.91
2019-01-29T03:36:55.613Z,92.91
2019-01-29T03:39:25.021Z,92.34
2019-01-29T03:41:54.401Z,92.68
2019-01-29T03:44:23.776Z,92.52
2019-01-29T03:46:53.119Z,91.44
2019-01-29T03:49:22.465Z,91.92
2019-01-29T03:51:51.816Z,91.92
2019-01-29T03:54:21.146Z,91.59
2019-01-29T03:56:50.481Z,92.08
2019-01-29T03:59:19.870Z,92.61
2019-01-29T04:01:49.214Z,92.32
2019-01-29T04:04:18.605Z,92.28
2019-01-29T04:06:47.962Z,92.18
2019-01-29T04:09:17.307Z,91.93
2019-01-29T04:11:46.741Z,92.62
2019-01-29T04:14:16.092Z,92.75
2019-01-29T04:16:45.443Z,92.81
2019-01-29T04:19:14.773Z,92.85
2019-01-29T04:21:44.112Z,92.80
2019-01-29T04:24:13.572Z,92.47
2019-01-29T04:26:42.904Z,92.24
2019-01-29T04:29:12.252Z,92.01
2019-01-29T04:31:41.627Z,91.85
2019-01-29T04:34:11.055Z,92.38
2019-01-29T04:36:40.434Z,93.15
2019-01-29T04:39:10.067Z,93.51
2019-01-29T04:41:39.438Z,93.77
2019-01-29T04:44:08.820Z,93.71
2019-01-29T04:46:38.210Z,93.45
2019-01-29T04:49:07.671Z,93.44
2019-01-29T04:51:37.066Z,93.73
2019-01-29T04:54:06.421Z,93.96
2019-01-29T04:56:35.792Z,94.28
2019-01-29T04:59:05.245Z,94.92
2019-01-29T05:01:34.584Z,94.92
2019-01-29T05:04:04.002Z,94.92
2019-01-29T05:06:33.345Z,94.69
2019-01-29T05:09:04.584Z,94.69
2019-01-29T05:11:33.993Z,95.46
2019-01-29T05:14:03.377Z,95.62
2019-01-29T05:16:32.727Z,95.40
2019-01-29T05:19:02.149Z,95.09
2019-01-29T05:21:31.533Z,95.00
2019-01-29T05:24:06.645Z,95.99
2019-01-29T05:26:32.044Z,96.65
2019-01-29T05:29:01.420Z,96.72
2019-01-29T05:31:30.808Z,96.79
2019-01-29T05:34:00.183Z,96.76
2019-01-29T05:36:29.536Z,96.54
2019-01-29T05:38:58.913Z,96.05
2019-01-29T05:41:28.284Z,95.75
2019-01-29T05:43:57.610Z,95.38
2019-01-29T05:46:26.985Z,95.28
2019-01-29T05:48:56.353Z,95.85
2019-01-29T05:51:25.722Z,96.18
2019-01-29T05:53:55.136Z,96.00
2019-01-29T05:56:24.643Z,95.97
2019-01-29T05:58:53.997Z,95.97
2019-01-29T06:01:23.333Z,95.19
2019-01-29T06:03:52.717Z,95.19
2019-01-29T06:06:22.066Z,95.44
2019-01-29T06:08:51.409Z,95.71
2019-01-29T06:11:20.758Z,96.04
2019-01-29T06:13:50.085Z,96.19
2019-01-29T06:16:19.441Z,95.63
2019-01-29T06:18:48.793Z,95.63
2019-01-29T06:21:18.143Z,96.25
2019-01-29T06:23:47.511Z,96.30
2019-01-29T06:26:16.863Z,96.08
2019-01-29T06:28:46.195Z,95.74
2019-01-29T06:31:15.572Z,95.16
2019-01-29T06:33:44.954Z,94.81
2019-01-29T06:36:14.291Z,94.87
2019-01-29T06:38:43.766Z,94.95
2019-01-29T06:41:13.137Z,94.92
2019-01-29T06:43:42.490Z,94.91
2019-01-29T06:46:11.904Z,94.79
2019-01-29T06:48:41.262Z,95.02
2019-01-29T06:51:10.604Z,95.05
2019-01-29T06:53:40.064Z,95.09
2019-01-29T06:56:09.446Z,95.40
2019-01-29T06:58:38.885Z,95.36
2019-01-29T07:01:08.236Z,95.23
2019-01-29T07:03:37.607Z,96.18
2019-01-29T07:06:07.157Z,95.35
2019-01-29T07:08:36.510Z,94.22
2019-01-29T07:11:05.871Z,94.35
2019-01-29T07:13:35.231Z,94.14
2019-01-29T07:16:41.981Z,93.97
2019-01-29T07:19:17.828Z,94.13
2019-01-29T07:21:47.221Z,94.03
2019-01-29T07:24:16.545Z,93.97
2019-01-29T07:26:45.911Z,93.84
2019-01-29T07:29:15.321Z,93.55
2019-01-29T07:31:44.876Z,93.29
2019-01-29T07:34:14.681Z,92.91
2019-01-29T07:36:44.125Z,92.85
2019-01-29T07:39:13.479Z,92.60
2019-01-29T07:41:42.990Z,92.68
2019-01-29T07:44:12.333Z,92.58
2019-01-29T07:46:41.704Z,91.91
2019-01-29T07:49:11.074Z,89.74
2019-01-29T07:51:40.434Z,86.57
2019-01-29T07:54:09.791Z,83.36
2019-01-29T07:56:39.163Z,80.73
2019-01-29T07:59:08.473Z,78.20
2019-01-29T08:01:37.859Z,76.70
2019-01-29T08:04:07.219Z,75.91
2019-01-29T08:06:36.869Z,74.00
2019-01-29T08:09:10.026Z,73.68
2019-01-29T08:11:39.342Z,73.23
2019-01-29T08:14:08.686Z,71.87
2019-01-29T08:16:38.115Z,70.92
2019-01-29T08:19:07.483Z,71.29
2019-01-29T08:21:36.847Z,73.44
2019-01-29T08:24:06.204Z,75.98
2019-01-29T08:26:35.581Z,77.14
2019-01-29T08:29:05.119Z,77.77
2019-01-29T08:31:34.502Z,78.26
2019-01-29T08:34:04.134Z,79.09
2019-01-29T08:36:33.501Z,79.32
2019-01-29T08:39:04.565Z,80.54
2019-01-29T08:41:33.900Z,81.98
2019-01-29T08:44:03.372Z,83.23
2019-01-29T08:46:32.821Z,84.08
2019-01-29T08:49:02.292Z,84.84
2019-01-29T08:51:31.661Z,85.12
2019-01-29T08:54:01.096Z,84.81
2019-01-29T08:56:30.494Z,85.29
2019-01-29T08:58:59.852Z,85.34
2019-01-29T09:01:29.178Z,85.41
2019-01-29T09:03:58.567Z,85.04
2019-01-29T09:06:27.907Z,84.85
2019-01-29T09:08:57.277Z,84.60
2019-01-29T09:11:26.642Z,84.63
2019-01-29T09:13:56.133Z,84.83
2019-01-29T09:16:25.516Z,85.58
2019-01-29T09:18:54.882Z,85.57
2019-01-29T09:21:24.260Z,85.25
2019-01-29T09:23:53.652Z,85.29
2019-01-29T09:26:23.010Z,85.00
2019-01-29T09:28:52.394Z,84.95
2019-01-29T09:31:21.870Z,84.54
2019-01-29T09:33:51.207Z,84.78
2019-01-29T09:36:20.586Z,85.31
2019-01-29T09:38:49.955Z,85.54
2019-01-29T09:41:19.290Z,84.99
2019-01-29T09:43:48.735Z,85.03
2019-01-29T09:46:18.374Z,84.97
2019-01-29T09:48:47.745Z,84.96
2019-01-29T09:51:17.110Z,85.23
2019-01-29T09:53:46.480Z,85.30
2019-01-29T09:56:15.825Z,86.50
2019-01-29T09:58:45.181Z,86.66
2019-01-29T10:01:14.568Z,87.25
2019-01-29T10:03:43.941Z,87.52
2019-01-29T10:06:13.472Z,87.37
2019-01-29T10:08:42.889Z,87.01
2019-01-29T10:11:12.311Z,86.86
2019-01-29T10:13:41.745Z,87.15
2019-01-29T10:16:11.112Z,87.60
2019-01-29T10:18:40.466Z,87.65
2019-01-29T10:21:09.862Z,86.95
2019-01-29T10:23:39.238Z,85.89
2019-01-29T10:26:08.617Z,86.06
2019-01-29T10:28:37.978Z,86.67
2019-01-29T10:31:07.389Z,86.86
2019-01-29T10:33:36.751Z,86.18
2019-01-29T10:36:06.390Z,85.80
2019-01-29T10:38:35.813Z,85.42
2019-01-29T10:41:05.231Z,85.76
2019-01-29T10:43:34.692Z,85.60
2019-01-29T10:46:04.052Z,85.88
2019-01-29T10:48:33.418Z,85.50
2019-01-29T10:51:02.771Z,85.16
2019-01-29T10:53:32.119Z,85.79
2019-01-29T10:56:01.555Z,86.62
2019-01-29T10:58:31.013Z,86.65
2019-01-29T11:01:00.441Z,86.53
2019-01-29T11:03:30.132Z,86.10
2019-01-29T11:05:59.503Z,85.64
2019-01-29T11:08:28.873Z,85.78
2019-01-29T11:10:58.245Z,85.73
2019-01-29T11:13:27.665Z,85.50
2019-01-29T11:15:57.100Z,85.04
2019-01-29T11:18:26.445Z,84.46
2019-01-29T11:20:55.886Z,83.58
2019-01-29T11:23:25.216Z,83.24
2019-01-29T11:25:56.068Z,83.43
2019-01-29T11:28:25.692Z,84.29
2019-01-29T11:30:55.369Z,85.15
2019-01-29T11:33:24.722Z,86.03
2019-01-29T11:35:54.112Z,86.06
2019-01-29T11:38:23.469Z,86.41
2019-01-29T11:40:53.691Z,86.57
2019-01-29T11:43:23.113Z,87.22
2019-01-29T11:45:54.287Z,87.19
2019-01-29T11:48:23.653Z,87.11
2019-01-29T11:50:53.007Z,87.17
2019-01-29T11:53:22.488Z,87.23
2019-01-29T11:55:51.832Z,87.60
2019-01-29T11:58:21.253Z,88.03
2019-01-29T12:00:55.471Z,88.55
2019-01-29T12:03:24.858Z,89.00
2019-01-29T12:05:54.560Z,88.63
2019-01-29T12:08:23.909Z,88.77
2019-01-29T12:10:53.282Z,88.66
2019-01-29T12:13:22.688Z,89.00
2019-01-29T12:15:52.080Z,89.60
2019-01-29T12:18:21.562Z,90.41
2019-01-29T12:20:50.998Z,90.71
2019-01-29T12:23:20.371Z,91.13
2019-01-29T12:25:52.301Z,91.87
2019-01-29T12:28:21.649Z,92.55
2019-01-29T12:30:51.015Z,93.19
2019-01-29T12:33:20.411Z,93.72
2019-01-29T12:35:49.784Z,94.04
2019-01-29T12:38:19.132Z,94.84
2019-01-29T12:40:48.486Z,95.46
2019-01-29T12:43:17.855Z,95.95
2019-01-29T12:45:48.329Z,96.26
2019-01-29T12:48:18.021Z,96.37
2019-01-29T12:50:52.853Z,96.25
2019-01-29T12:53:25.079Z,96.65
2019-01-29T12:55:54.443Z,97.12
2019-01-29T12:58:23.892Z,97.48
2019-01-29T13:00:57.655Z,97.39
2019-01-29T13:03:27.003Z,97.49
2019-01-29T13:05:56.383Z,97.67
2019-01-29T13:08:25.840Z,97.83
2019-01-29T13:10:55.204Z,97.91
2019-01-29T13:13:24.683Z,97.78
2019-01-29T13:15:54.047Z,97.81
2019-01-29T13:18:23.432Z,98.01
2019-01-29T13:20:52.779Z,98.30
2019-01-29T13:23:22.501Z,98.60
2019-01-29T13:25:51.852Z,98.90
2019-01-29T13:28:21.212Z,98.97
2019-01-29T13:30:50.698Z,99.13
2019-01-29T13:33:20.087Z,99.08
2019-01-29T13:35:49.488Z,99.08
2019-01-29T13:38:18.865Z,99.03
2019-01-29T13:40:48.245Z,99.37
2019-01-29T13:43:17.916Z,99.79
2019-01-29T13:45:47.516Z,99.99
2019-01-29T13:48:17.054Z,100.00
2019-01-29T13:50:50.165Z,100.00
2019-01-29T13:53:19.532Z,100.00
2019-01-29T13:55:48.937Z,100.00
2019-01-29T13:58:18.464Z,100.00
2019-01-29T14:00:47.835Z,100.00
2019-01-29T14:03:18.713Z,100.00
2019-01-29T14:05:48.231Z,100.00
2019-01-29T14:08:17.587Z,100.00
2019-01-29T14:10:46.969Z,100.00
2019-01-29T14:13:16.324Z,100.00
2019-01-29T14:16:00.155Z,100.00
2019-01-29T14:18:31.519Z,100.00
2019-01-29T14:21:01.626Z,100.00
2019-01-29T14:23:31.048Z,100.00
2019-01-29T14:26:00.828Z,100.00
2019-01-29T14:28:30.168Z,100.00
2019-01-29T14:30:59.569Z,100.00
2019-01-29T14:33:29.028Z,100.00
2019-01-29T14:35:58.381Z,99.73
2019-01-29T14:39:05.413Z,99.43
2019-01-29T14:41:34.902Z,99.07
2019-01-29T14:44:05.626Z,98.90
2019-01-29T14:46:34.951Z,99.09
2019-01-29T14:49:04.445Z,99.36
2019-01-29T14:51:33.787Z,99.45
2019-01-29T14:54:03.163Z,99.36
2019-01-29T14:56:32.532Z,99.41
2019-01-29T14:59:01.982Z,99.34
2019-01-29T15:01:31.495Z,99.07
2019-01-29T15:04:00.870Z,98.87
2019-01-29T15:06:32.607Z,98.82
2019-01-29T15:09:01.327Z,98.72
2019-01-29T15:11:30.702Z,98.71
2019-01-29T15:14:00.074Z,98.78
2019-01-29T15:16:41.523Z,98.59
2019-01-29T15:19:14.127Z,98.43
2019-01-29T15:21:43.688Z,98.49
2019-01-29T15:24:13.027Z,98.66
2019-01-29T15:26:42.375Z,99.00
2019-01-29T15:29:11.791Z,99.02
2019-01-29T15:31:41.445Z,99.32
2019-01-29T15:34:10.907Z,99.46
2019-01-29T15:36:40.320Z,99.84
2019-01-29T15:39:10.244Z,100.00
2019-01-29T15:41:39.614Z,100.00
2019-01-29T15:44:09.102Z,100.00
2019-01-29T15:46:38.512Z,100.00
2019-01-29T15:49:08.291Z,100.00
2019-01-29T15:51:37.661Z,100.00
2019-01-29T15:54:08.323Z,100.00
2019-01-29T15:56:37.697Z,100.00
2019-01-29T15:59:07.067Z,100.00
2019-01-29T16:01:36.683Z,100.00
2019-01-29T16:04:06.205Z,100.00
2019-01-29T16:06:35.558Z,100.00
2019-01-29T16:09:08.388Z,100.00
2019-01-29T16:11:39.427Z,100.00
2019-01-29T16:14:09.078Z,100.00
2019-01-29T16:16:38.507Z,100.00
2019-01-29T16:19:07.981Z,100.00
2019-01-29T16:21:38.156Z,100.00
2019-01-29T16:24:07.518Z,100.00
2019-01-29T16:26:36.975Z,100.00
2019-01-29T16:29:06.443Z,100.00
2019-01-29T16:31:36.072Z,100.00
2019-01-29T16:34:05.520Z,100.00
2019-01-29T16:36:34.944Z,100.00
2019-01-29T16:39:07.181Z,100.00
2019-01-29T16:41:36.684Z,100.00
2019-01-29T16:44:06.187Z,100.00
2019-01-29T16:46:35.604Z,100.00
2019-01-29T16:49:04.983Z,100.00
2019-01-29T16:51:41.937Z,100.00
2019-01-29T16:54:05.566Z,100.00
2019-01-29T16:56:34.949Z,100.00
2019-01-29T16:59:04.451Z,100.00
2019-01-29T17:01:33.790Z,100.00
2019-01-29T17:04:03.177Z,100.00
2019-01-29T17:06:32.573Z,100.00
2019-01-29T17:09:01.956Z,100.00
2019-01-29T17:11:31.331Z,100.00
2019-01-29T17:14:00.843Z,100.00
2019-01-29T17:16:30.214Z,100.00
2019-01-29T17:18:59.585Z,100.00
2019-01-29T17:21:29.014Z,100.00
2019-01-29T17:23:58.358Z,100.00
2019-01-29T17:26:27.739Z,100.00
2019-01-29T17:28:57.105Z,100.00
2019-01-29T17:31:26.524Z,100.00
2019-01-29T17:33:57.104Z,100.00
2019-01-29T17:36:26.492Z,100.00
2019-01-29T17:38:55.910Z,100.00
2019-01-29T17:41:25.328Z,100.00
2019-01-29T17:43:57.434Z,100.00
2019-01-29T17:46:27.356Z,100.00
2019-01-29T17:48:56.777Z,100.00
2019-01-29T17:51:26.708Z,100.00
2019-01-29T17:53:56.164Z,100.00
2019-01-29T17:56:26.600Z,100.00
2019-01-29T17:58:56.006Z,100.00
2019-01-29T18:01:25.369Z,100.00
2019-01-29T18:03:54.726Z,100.00
2019-01-29T18:06:24.152Z,100.00
2019-01-29T18:08:53.530Z,100.00
2019-01-29T18:11:22.892Z,100.00
2019-01-29T18:13:53.422Z,100.00
2019-01-29T18:16:22.741Z,100.00
2019-01-29T18:18:52.085Z,100.00
2019-01-29T18:21:21.871Z,100.00
2019-01-29T18:23:51.240Z,100.00
2019-01-29T18:26:23.660Z,100.00
2019-01-29T18:28:53.991Z,100.00
2019-01-29T18:31:26.819Z,100.00
2019-01-29T18:33:58.413Z,100.00
2019-01-29T18:36:27.818Z,100.00
2019-01-29T18:38:57.201Z,100.00
2019-01-29T18:41:26.568Z,100.00
2019-01-29T18:43:55.949Z,100.00
2019-01-29T18:46:25.345Z,100.00
2019-01-29T18:48:54.760Z,100.00
2019-01-29T18:51:24.116Z,100.00
2019-01-29T18:53:53.493Z,100.00
2019-01-29T18:56:22.991Z,100.00
2019-01-29T18:58:52.365Z,100.00
2019-01-29T19:01:21.741Z,100.00
2019-01-29T19:03:51.473Z,100.00
2019-01-29T19:06:20.842Z,100.00
2019-01-29T19:08:50.575Z,100.00
2019-01-29T19:11:20.421Z,100.00
2019-01-29T19:13:50.131Z,100.00
2019-01-29T19:16:20.833Z,100.00
2019-01-29T19:18:50.195Z,100.00
2019-01-29T19:21:19.574Z,100.00
2019-01-29T19:23:49.298Z,100.00
2019-01-29T19:26:20.666Z,100.00
2019-01-29T19:28:51.523Z,100.00
2019-01-29T19:31:21.817Z,100.00
2019-01-29T19:33:52.321Z,100.00
2019-01-29T19:36:23.211Z,100.00
2019-01-29T19:38:52.601Z,100.00
2019-01-29T19:41:21.956Z,100.00
2019-01-29T19:43:51.351Z,100.00
2019-01-29T19:46:21.127Z,100.00
2019-01-29T19:48:50.892Z,100.00
2019-01-29T19:51:20.291Z,100.00
2019-01-29T19:53:49.654Z,100.00
2019-01-29T19:56:19.022Z,100.00
2019-01-29T19:58:48.404Z,100.00
2019-01-29T20:01:17.959Z,100.00
2019-01-29T20:03:47.476Z,100.00
2019-01-29T20:06:16.860Z,100.00
2019-01-29T20:08:48.292Z,100.00
2019-01-29T20:11:17.710Z,100.00
2019-01-29T20:13:47.119Z,100.00
2019-01-29T20:16:16.846Z,100.00
2019-01-29T20:18:48.906Z,100.00
2019-01-29T20:21:17.429Z,100.00
2019-01-29T20:23:46.876Z,100.00
2019-01-29T20:26:16.352Z,100.00
2019-01-29T20:28:45.731Z,100.00
2019-01-29T20:31:15.190Z,100.00
2019-01-29T20:33:44.590Z,100.00
2019-01-29T20:36:13.963Z,100.00
2019-01-29T20:38:43.503Z,100.00
2019-01-29T20:41:12.896Z,100.00
2019-01-29T20:43:42.312Z,100.00
2019-01-29T20:46:13.160Z,100.00
2019-01-29T20:48:42.538Z,100.00
2019-01-29T20:51:12.228Z,100.00
2019-01-29T20:53:41.930Z,100.00
2019-01-29T20:56:11.436Z,100.00
2019-01-29T20:58:40.769Z,100.00
2019-01-29T21:01:10.135Z,100.00
2019-01-29T21:03:39.996Z,100.00
2019-01-29T21:06:09.403Z,100.00
2019-01-29T21:08:38.818Z,100.00
2019-01-29T21:11:08.211Z,100.00
2019-01-29T21:13:37.553Z,100.00
2019-01-29T21:16:06.942Z,100.00
2019-01-29T21:18:36.453Z,100.00
2019-01-29T21:21:05.799Z,100.00
2019-01-29T21:23:36.758Z,100.00
2019-01-29T21:26:06.203Z,100.00
2019-01-29T21:28:35.628Z,100.00
2019-01-29T21:31:05.142Z,100.00
2019-01-29T21:33:34.571Z,100.00
2019-01-29T21:36:04.038Z,100.00
2019-01-29T21:38:33.386Z,100.00
2019-01-29T21:41:02.762Z,100.00
2019-01-29T21:43:32.158Z,100.00
2019-01-29T21:46:01.537Z,100.00
2019-01-29T21:48:30.915Z,100.00
2019-01-29T21:51:00.275Z,100.00
2019-01-29T21:53:29.638Z,100.00
2019-01-29T21:55:58.994Z,100.00
2019-01-29T21:58:28.453Z,100.00
2019-01-29T22:00:58.198Z,100.00
2019-01-29T22:03:27.606Z,100.00
2019-01-29T22:05:57.009Z,100.00
2019-01-29T22:08:26.393Z,100.00
2019-01-29T22:10:55.783Z,100.00
2019-01-29T22:13:25.234Z,100.00
2019-01-29T22:15:54.608Z,100.00
2019-01-29T22:18:23.986Z,100.00
2019-01-29T22:20:53.399Z,100.00
2019-01-29T22:23:22.884Z,100.00
2019-01-29T22:25:52.237Z,100.00
2019-01-29T22:28:21.616Z,100.00
2019-01-29T22:30:50.976Z,100.00
2019-01-29T22:33:20.364Z,100.00
2019-01-29T22:35:49.705Z,100.00
2019-01-29T22:38:19.099Z,100.00
2019-01-29T22:40:48.513Z,100.00
2019-01-29T22:43:17.869Z,100.00
2019-01-29T22:45:47.265Z,100.00
2019-01-29T22:48:16.639Z,100.00
2019-01-29T22:50:46.049Z,100.00
2019-01-29T22:53:15.415Z,100.00
2019-01-29T22:55:44.828Z,100.00
2019-01-29T22:58:14.227Z,100.00
2019-01-29T23:01:35.072Z,100.00
2019-01-29T23:04:34.600Z,100.00
2019-01-29T23:07:30.529Z,100.00
2019-01-29T23:10:00.017Z,100.00
2019-01-29T23:12:29.395Z,100.00
2019-01-29T23:14:58.793Z,100.00
2019-01-29T23:17:28.190Z,100.00
2019-01-29T23:19:57.546Z,100.00
2019-01-29T23:22:26.923Z,100.00
2019-01-29T23:24:56.283Z,100.00
2019-01-29T23:27:25.653Z,100.00
2019-01-29T23:29:55.041Z,100.00
2019-01-29T23:32:24.829Z,100.00
2019-01-29T23:34:54.206Z,100.00
2019-01-29T23:37:23.564Z,100.00
2019-01-29T23:39:52.918Z,100.00
2019-01-29T23:42:22.264Z,100.00
2019-01-29T23:44:51.653Z,100.00
2019-01-29T23:47:21.132Z,100.00
2019-01-29T23:49:50.632Z,100.00
2019-01-29T23:52:20.012Z,100.00
2019-01-29T23:54:49.383Z,100.00
2019-01-29T23:57:18.778Z,100.00
2019-01-29T23:59:53.815Z,100.00
